sensor_id;sensor_type;location;lat;lon;timestamp;P1;durP1;ratioP1;P2;durP2;ratioP2
68821;SDS011;55834;50.870;4.606;2023-06-24T00:02:16;4.60;;;3.70;;
68821;SDS011;55834;50.870;4.606;2023-06-24T00:04:41;5.10;;;3.53;;
68821;SDS011;55834;50.870;4.606;2023-06-24T00:07:06;4.70;;;3.30;;
68821;SDS011;55834;50.870;4.606;2023-06-24T00:09:32;6.18;;;4.53;;
68821;SDS011;55834;50.870;4.606;2023-06-24T00:11:58;4.65;;;3.40;;
68821;SDS011;55834;50.870;4.606;2023-06-24T00:14:24;6.15;;;3.80;;
68821;SDS011;55834;50.870;4.606;2023-06-24T00:16:53;5.47;;;2.90;;
68821;SDS011;55834;50.870;4.606;2023-06-24T00:19:19;4.30;;;2.60;;
68821;SDS011;55834;50.870;4.606;2023-06-24T00:24:11;4.15;;;2.20;;
68821;SDS011;55834;50.870;4.606;2023-06-24T00:26:36;4.10;;;2.87;;
68821;SDS011;55834;50.870;4.606;2023-06-24T00:29:02;3.60;;;2.40;;
68821;SDS011;55834;50.870;4.606;2023-06-24T00:31:27;3.90;;;2.40;;
68821;SDS011;55834;50.870;4.606;2023-06-24T00:33:53;3.90;;;3.05;;
68821;SDS011;55834;50.870;4.606;2023-06-24T00:36:18;4.97;;;2.72;;
68821;SDS011;55834;50.870;4.606;2023-06-24T00:38:44;4.93;;;3.47;;
68821;SDS011;55834;50.870;4.606;2023-06-24T00:41:09;4.97;;;3.30;;
68821;SDS011;55834;50.870;4.606;2023-06-24T00:43:35;4.47;;;2.80;;
68821;SDS011;55834;50.870;4.606;2023-06-24T00:46:00;5.60;;;3.38;;
68821;SDS011;55834;50.870;4.606;2023-06-24T00:48:27;5.75;;;3.35;;
68821;SDS011;55834;50.870;4.606;2023-06-24T00:50:52;3.90;;;2.73;;
68821;SDS011;55834;50.870;4.606;2023-06-24T00:53:18;4.13;;;2.83;;
68821;SDS011;55834;50.870;4.606;2023-06-24T00:55:45;3.65;;;2.45;;
68821;SDS011;55834;50.870;4.606;2023-06-24T00:58:12;4.28;;;3.30;;
68821;SDS011;55834;50.870;4.606;2023-06-24T01:00:42;2.75;;;1.98;;
68821;SDS011;55834;50.870;4.606;2023-06-24T01:03:09;6.65;;;3.35;;
68821;SDS011;55834;50.870;4.606;2023-06-24T01:05:37;4.20;;;2.33;;
68821;SDS011;55834;50.870;4.606;2023-06-24T01:08:02;3.58;;;2.70;;
68821;SDS011;55834;50.870;4.606;2023-06-24T01:10:28;5.97;;;2.85;;
68821;SDS011;55834;50.870;4.606;2023-06-24T01:12:53;4.43;;;2.37;;
68821;SDS011;55834;50.870;4.606;2023-06-24T01:15:18;6.40;;;2.97;;
68821;SDS011;55834;50.870;4.606;2023-06-24T01:18:02;4.55;;;2.45;;
68821;SDS011;55834;50.870;4.606;2023-06-24T01:34:12;2.80;;;2.00;;
68821;SDS011;55834;50.870;4.606;2023-06-24T01:36:40;4.90;;;2.83;;
68821;SDS011;55834;50.870;4.606;2023-06-24T01:39:12;3.63;;;2.58;;
68821;SDS011;55834;50.870;4.606;2023-06-24T01:41:47;4.45;;;3.08;;
68821;SDS011;55834;50.870;4.606;2023-06-24T01:44:19;3.42;;;2.40;;
68821;SDS011;55834;50.870;4.606;2023-06-24T01:46:46;2.00;;;1.80;;
68821;SDS011;55834;50.870;4.606;2023-06-24T01:49:16;2.72;;;2.10;;
68821;SDS011;55834;50.870;4.606;2023-06-24T01:51:44;4.50;;;1.70;;
68821;SDS011;55834;50.870;4.606;2023-06-24T01:54:13;3.28;;;1.80;;
68821;SDS011;55834;50.870;4.606;2023-06-24T01:56:44;3.70;;;2.90;;
68821;SDS011;55834;50.870;4.606;2023-06-24T01:59:13;2.72;;;1.98;;
68821;SDS011;55834;50.870;4.606;2023-06-24T02:01:40;4.70;;;2.50;;
68821;SDS011;55834;50.870;4.606;2023-06-24T02:04:08;3.25;;;2.65;;
68821;SDS011;55834;50.870;4.606;2023-06-24T02:06:35;4.30;;;2.50;;
68821;SDS011;55834;50.870;4.606;2023-06-24T02:09:03;2.42;;;1.92;;
68821;SDS011;55834;50.870;4.606;2023-06-24T02:11:30;2.50;;;1.73;;
68821;SDS011;55834;50.870;4.606;2023-06-24T02:13:58;4.22;;;2.55;;
68821;SDS011;55834;50.870;4.606;2023-06-24T02:16:26;4.70;;;2.45;;
68821;SDS011;55834;50.870;4.606;2023-06-24T02:18:52;6.38;;;3.40;;
68821;SDS011;55834;50.870;4.606;2023-06-24T02:21:20;4.60;;;3.70;;
68821;SDS011;55834;50.870;4.606;2023-06-24T02:23:48;3.55;;;2.35;;
68821;SDS011;55834;50.870;4.606;2023-06-24T02:26:14;3.95;;;2.20;;
68821;SDS011;55834;50.870;4.606;2023-06-24T02:28:40;4.50;;;3.28;;
68821;SDS011;55834;50.870;4.606;2023-06-24T02:31:07;4.82;;;3.20;;
68821;SDS011;55834;50.870;4.606;2023-06-24T02:33:34;5.80;;;3.38;;
68821;SDS011;55834;50.870;4.606;2023-06-24T02:35:59;4.75;;;2.80;;
68821;SDS011;55834;50.870;4.606;2023-06-24T02:38:25;11.75;;;3.42;;
68821;SDS011;55834;50.870;4.606;2023-06-24T02:40:50;3.85;;;2.42;;
68821;SDS011;55834;50.870;4.606;2023-06-24T02:43:17;3.33;;;2.35;;
68821;SDS011;55834;50.870;4.606;2023-06-24T02:45:42;3.45;;;2.60;;
68821;SDS011;55834;50.870;4.606;2023-06-24T02:48:09;3.38;;;2.78;;
68821;SDS011;55834;50.870;4.606;2023-06-24T02:50:36;4.10;;;2.67;;
68821;SDS011;55834;50.870;4.606;2023-06-24T02:53:04;3.30;;;2.83;;
68821;SDS011;55834;50.870;4.606;2023-06-24T02:55:29;3.28;;;2.80;;
68821;SDS011;55834;50.870;4.606;2023-06-24T02:57:57;4.15;;;2.58;;
68821;SDS011;55834;50.870;4.606;2023-06-24T03:00:23;4.50;;;2.58;;
68821;SDS011;55834;50.870;4.606;2023-06-24T03:02:49;5.57;;;2.50;;
68821;SDS011;55834;50.870;4.606;2023-06-24T03:05:15;4.43;;;2.22;;
68821;SDS011;55834;50.870;4.606;2023-06-24T03:07:41;5.50;;;2.72;;
68821;SDS011;55834;50.870;4.606;2023-06-24T03:10:07;3.47;;;2.65;;
68821;SDS011;55834;50.870;4.606;2023-06-24T03:12:35;3.83;;;2.60;;
68821;SDS011;55834;50.870;4.606;2023-06-24T03:15:00;2.57;;;2.30;;
68821;SDS011;55834;50.870;4.606;2023-06-24T03:17:26;4.85;;;3.28;;
68821;SDS011;55834;50.870;4.606;2023-06-24T03:19:52;4.32;;;2.70;;
68821;SDS011;55834;50.870;4.606;2023-06-24T03:22:17;4.07;;;2.77;;
68821;SDS011;55834;50.870;4.606;2023-06-24T03:24:43;3.42;;;3.13;;
68821;SDS011;55834;50.870;4.606;2023-06-24T03:27:08;3.90;;;3.03;;
68821;SDS011;55834;50.870;4.606;2023-06-24T03:29:33;5.60;;;3.83;;
68821;SDS011;55834;50.870;4.606;2023-06-24T03:31:59;3.38;;;2.50;;
68821;SDS011;55834;50.870;4.606;2023-06-24T03:34:24;3.10;;;2.30;;
68821;SDS011;55834;50.870;4.606;2023-06-24T03:36:52;4.32;;;3.38;;
68821;SDS011;55834;50.870;4.606;2023-06-24T03:39:19;4.75;;;3.42;;
68821;SDS011;55834;50.870;4.606;2023-06-24T03:41:45;3.35;;;2.25;;
68821;SDS011;55834;50.870;4.606;2023-06-24T03:44:11;4.45;;;2.95;;
68821;SDS011;55834;50.870;4.606;2023-06-24T03:46:36;3.47;;;2.72;;
68821;SDS011;55834;50.870;4.606;2023-06-24T03:49:02;4.17;;;2.30;;
68821;SDS011;55834;50.870;4.606;2023-06-24T03:51:27;4.10;;;2.47;;
68821;SDS011;55834;50.870;4.606;2023-06-24T03:53:53;3.63;;;2.65;;
68821;SDS011;55834;50.870;4.606;2023-06-24T03:56:18;4.67;;;2.70;;
68821;SDS011;55834;50.870;4.606;2023-06-24T03:58:43;4.75;;;3.03;;
68821;SDS011;55834;50.870;4.606;2023-06-24T04:01:09;2.47;;;2.03;;
68821;SDS011;55834;50.870;4.606;2023-06-24T04:03:34;3.20;;;2.43;;
68821;SDS011;55834;50.870;4.606;2023-06-24T04:06:00;2.45;;;2.25;;
68821;SDS011;55834;50.870;4.606;2023-06-24T04:08:26;4.22;;;2.50;;
68821;SDS011;55834;50.870;4.606;2023-06-24T04:10:54;2.50;;;2.30;;
68821;SDS011;55834;50.870;4.606;2023-06-24T04:13:25;4.00;;;2.67;;
68821;SDS011;55834;50.870;4.606;2023-06-24T04:15:50;6.40;;;2.80;;
68821;SDS011;55834;50.870;4.606;2023-06-24T04:18:16;6.90;;;3.00;;
68821;SDS011;55834;50.870;4.606;2023-06-24T04:20:41;3.27;;;2.43;;
68821;SDS011;55834;50.870;4.606;2023-06-24T04:23:06;3.93;;;2.20;;
68821;SDS011;55834;50.870;4.606;2023-06-24T04:25:35;4.75;;;2.47;;
68821;SDS011;55834;50.870;4.606;2023-06-24T04:28:01;3.42;;;2.30;;
68821;SDS011;55834;50.870;4.606;2023-06-24T04:30:26;3.80;;;2.50;;
68821;SDS011;55834;50.870;4.606;2023-06-24T04:32:52;5.00;;;2.63;;
68821;SDS011;55834;50.870;4.606;2023-06-24T04:35:17;3.20;;;2.43;;
68821;SDS011;55834;50.870;4.606;2023-06-24T04:37:42;4.30;;;2.70;;
68821;SDS011;55834;50.870;4.606;2023-06-24T04:40:08;2.63;;;2.13;;
68821;SDS011;55834;50.870;4.606;2023-06-24T04:42:34;2.33;;;2.13;;
68821;SDS011;55834;50.870;4.606;2023-06-24T04:45:00;3.78;;;2.58;;
68821;SDS011;55834;50.870;4.606;2023-06-24T04:47:25;2.42;;;1.90;;
68821;SDS011;55834;50.870;4.606;2023-06-24T04:49:51;2.50;;;2.10;;
68821;SDS011;55834;50.870;4.606;2023-06-24T04:52:16;3.30;;;2.10;;
68821;SDS011;55834;50.870;4.606;2023-06-24T04:54:41;2.95;;;1.77;;
68821;SDS011;55834;50.870;4.606;2023-06-24T04:57:22;3.70;;;2.00;;
68821;SDS011;55834;50.870;4.606;2023-06-24T04:59:57;3.47;;;1.95;;
68821;SDS011;55834;50.870;4.606;2023-06-24T05:02:23;2.15;;;1.67;;
68821;SDS011;55834;50.870;4.606;2023-06-24T05:04:49;2.63;;;2.35;;
68821;SDS011;55834;50.870;4.606;2023-06-24T05:07:16;2.10;;;1.92;;
68821;SDS011;55834;50.870;4.606;2023-06-24T05:09:41;2.87;;;2.00;;
68821;SDS011;55834;50.870;4.606;2023-06-24T05:12:08;1.70;;;1.58;;
68821;SDS011;55834;50.870;4.606;2023-06-24T05:14:34;4.65;;;1.98;;
68821;SDS011;55834;50.870;4.606;2023-06-24T05:17:00;2.88;;;1.50;;
68821;SDS011;55834;50.870;4.606;2023-06-24T05:19:25;4.53;;;1.63;;
68821;SDS011;55834;50.870;4.606;2023-06-24T05:21:51;5.10;;;2.40;;
68821;SDS011;55834;50.870;4.606;2023-06-24T05:24:16;3.27;;;1.43;;
68821;SDS011;55834;50.870;4.606;2023-06-24T05:26:41;5.63;;;2.30;;
68821;SDS011;55834;50.870;4.606;2023-06-24T05:29:07;3.88;;;1.90;;
68821;SDS011;55834;50.870;4.606;2023-06-24T05:31:32;2.97;;;2.33;;
68821;SDS011;55834;50.870;4.606;2023-06-24T05:33:57;3.23;;;2.13;;
68821;SDS011;55834;50.870;4.606;2023-06-24T05:36:23;2.00;;;1.67;;
68821;SDS011;55834;50.870;4.606;2023-06-24T05:38:48;2.88;;;1.77;;
68821;SDS011;55834;50.870;4.606;2023-06-24T05:41:14;4.87;;;2.23;;
68821;SDS011;55834;50.870;4.606;2023-06-24T05:43:42;2.65;;;2.22;;
68821;SDS011;55834;50.870;4.606;2023-06-24T05:46:07;3.83;;;2.50;;
68821;SDS011;55834;50.870;4.606;2023-06-24T05:48:33;6.63;;;2.25;;
68821;SDS011;55834;50.870;4.606;2023-06-24T05:50:58;4.00;;;2.10;;
68821;SDS011;55834;50.870;4.606;2023-06-24T05:53:23;2.60;;;1.93;;
68821;SDS011;55834;50.870;4.606;2023-06-24T05:55:49;3.25;;;2.10;;
68821;SDS011;55834;50.870;4.606;2023-06-24T05:58:15;3.77;;;1.93;;
68821;SDS011;55834;50.870;4.606;2023-06-24T06:00:40;2.35;;;1.70;;
68821;SDS011;55834;50.870;4.606;2023-06-24T06:03:05;3.57;;;1.93;;
68821;SDS011;55834;50.870;4.606;2023-06-24T06:05:31;1.73;;;1.60;;
68821;SDS011;55834;50.870;4.606;2023-06-24T06:07:56;2.00;;;1.75;;
68821;SDS011;55834;50.870;4.606;2023-06-24T06:10:22;2.40;;;1.95;;
68821;SDS011;55834;50.870;4.606;2023-06-24T06:12:47;4.05;;;1.60;;
68821;SDS011;55834;50.870;4.606;2023-06-24T06:15:12;2.30;;;1.92;;
68821;SDS011;55834;50.870;4.606;2023-06-24T06:17:38;2.47;;;1.73;;
68821;SDS011;55834;50.870;4.606;2023-06-24T06:20:04;3.17;;;1.73;;
68821;SDS011;55834;50.870;4.606;2023-06-24T06:22:29;2.58;;;1.88;;
68821;SDS011;55834;50.870;4.606;2023-06-24T06:24:57;2.97;;;1.55;;
68821;SDS011;55834;50.870;4.606;2023-06-24T06:27:22;2.33;;;1.75;;
68821;SDS011;55834;50.870;4.606;2023-06-24T06:29:47;6.05;;;1.55;;
68821;SDS011;55834;50.870;4.606;2023-06-24T06:32:13;2.13;;;1.83;;
68821;SDS011;55834;50.870;4.606;2023-06-24T06:34:38;1.57;;;1.47;;
68821;SDS011;55834;50.870;4.606;2023-06-24T06:37:04;2.13;;;1.47;;
68821;SDS011;55834;50.870;4.606;2023-06-24T06:39:29;1.40;;;1.30;;
68821;SDS011;55834;50.870;4.606;2023-06-24T06:41:55;1.90;;;1.50;;
68821;SDS011;55834;50.870;4.606;2023-06-24T06:44:20;2.63;;;2.00;;
68821;SDS011;55834;50.870;4.606;2023-06-24T06:46:46;3.38;;;1.73;;
68821;SDS011;55834;50.870;4.606;2023-06-24T06:49:11;2.33;;;2.08;;
68821;SDS011;55834;50.870;4.606;2023-06-24T06:51:37;2.83;;;1.30;;
68821;SDS011;55834;50.870;4.606;2023-06-24T06:54:02;1.58;;;1.23;;
68821;SDS011;55834;50.870;4.606;2023-06-24T06:56:28;1.80;;;1.50;;
68821;SDS011;55834;50.870;4.606;2023-06-24T06:58:53;2.78;;;1.88;;
68821;SDS011;55834;50.870;4.606;2023-06-24T07:01:20;2.28;;;1.88;;
68821;SDS011;55834;50.870;4.606;2023-06-24T07:03:45;1.85;;;1.27;;
68821;SDS011;55834;50.870;4.606;2023-06-24T07:06:11;1.92;;;1.40;;
68821;SDS011;55834;50.870;4.606;2023-06-24T07:08:36;2.50;;;1.40;;
68821;SDS011;55834;50.870;4.606;2023-06-24T07:11:02;2.10;;;1.60;;
68821;SDS011;55834;50.870;4.606;2023-06-24T07:13:28;3.92;;;1.42;;
68821;SDS011;55834;50.870;4.606;2023-06-24T07:15:53;2.60;;;1.42;;
68821;SDS011;55834;50.870;4.606;2023-06-24T07:18:18;2.00;;;1.80;;
68821;SDS011;55834;50.870;4.606;2023-06-24T07:20:44;1.88;;;1.30;;
68821;SDS011;55834;50.870;4.606;2023-06-24T07:23:09;2.60;;;1.75;;
68821;SDS011;55834;50.870;4.606;2023-06-24T07:25:35;2.00;;;1.25;;
68821;SDS011;55834;50.870;4.606;2023-06-24T07:28:01;2.42;;;1.40;;
68821;SDS011;55834;50.870;4.606;2023-06-24T07:30:26;1.80;;;1.70;;
68821;SDS011;55834;50.870;4.606;2023-06-24T07:32:52;1.27;;;1.17;;
68821;SDS011;55834;50.870;4.606;2023-06-24T07:35:17;2.07;;;1.30;;
68821;SDS011;55834;50.870;4.606;2023-06-24T07:37:44;2.08;;;1.88;;
68821;SDS011;55834;50.870;4.606;2023-06-24T07:40:09;4.85;;;2.15;;
68821;SDS011;55834;50.870;4.606;2023-06-24T07:42:35;3.08;;;1.40;;
68821;SDS011;55834;50.870;4.606;2023-06-24T07:45:00;3.17;;;1.80;;
68821;SDS011;55834;50.870;4.606;2023-06-24T07:47:26;1.83;;;1.30;;
68821;SDS011;55834;50.870;4.606;2023-06-24T07:49:51;2.17;;;1.67;;
68821;SDS011;55834;50.870;4.606;2023-06-24T07:52:17;2.40;;;1.30;;
68821;SDS011;55834;50.870;4.606;2023-06-24T07:54:42;1.55;;;1.30;;
68821;SDS011;55834;50.870;4.606;2023-06-24T07:57:08;2.30;;;1.20;;
68821;SDS011;55834;50.870;4.606;2023-06-24T07:59:33;1.60;;;1.30;;
68821;SDS011;55834;50.870;4.606;2023-06-24T08:01:58;2.85;;;1.90;;
68821;SDS011;55834;50.870;4.606;2023-06-24T08:04:24;2.80;;;1.58;;
68821;SDS011;55834;50.870;4.606;2023-06-24T08:06:49;2.05;;;1.38;;
68821;SDS011;55834;50.870;4.606;2023-06-24T08:09:15;1.80;;;1.70;;
68821;SDS011;55834;50.870;4.606;2023-06-24T08:11:41;1.60;;;1.30;;
68821;SDS011;55834;50.870;4.606;2023-06-24T08:14:07;3.28;;;1.50;;
68821;SDS011;55834;50.870;4.606;2023-06-24T08:16:32;1.50;;;1.10;;
68821;SDS011;55834;50.870;4.606;2023-06-24T08:18:57;2.00;;;1.43;;
68821;SDS011;55834;50.870;4.606;2023-06-24T08:21:23;1.75;;;1.48;;
68821;SDS011;55834;50.870;4.606;2023-06-24T08:23:49;1.60;;;0.90;;
68821;SDS011;55834;50.870;4.606;2023-06-24T08:26:15;2.05;;;1.20;;
68821;SDS011;55834;50.870;4.606;2023-06-24T08:28:41;1.77;;;1.27;;
68821;SDS011;55834;50.870;4.606;2023-06-24T08:31:06;2.35;;;1.50;;
68821;SDS011;55834;50.870;4.606;2023-06-24T08:33:32;3.73;;;1.50;;
68821;SDS011;55834;50.870;4.606;2023-06-24T08:35:57;1.70;;;1.43;;
68821;SDS011;55834;50.870;4.606;2023-06-24T08:38:22;8.85;;;1.90;;
68821;SDS011;55834;50.870;4.606;2023-06-24T08:40:48;1.80;;;1.50;;
68821;SDS011;55834;50.870;4.606;2023-06-24T08:45:39;3.00;;;1.30;;
68821;SDS011;55834;50.870;4.606;2023-06-24T08:48:05;1.30;;;1.00;;
68821;SDS011;55834;50.870;4.606;2023-06-24T08:50:33;2.88;;;1.80;;
68821;SDS011;55834;50.870;4.606;2023-06-24T08:53:02;2.28;;;1.73;;
68821;SDS011;55834;50.870;4.606;2023-06-24T08:55:32;2.55;;;1.20;;
68821;SDS011;55834;50.870;4.606;2023-06-24T08:58:04;2.03;;;1.63;;
68821;SDS011;55834;50.870;4.606;2023-06-24T09:00:29;1.67;;;1.40;;
68821;SDS011;55834;50.870;4.606;2023-06-24T09:02:55;2.95;;;2.20;;
68821;SDS011;55834;50.870;4.606;2023-06-24T09:05:20;3.72;;;1.60;;
68821;SDS011;55834;50.870;4.606;2023-06-24T09:07:46;1.73;;;1.10;;
68821;SDS011;55834;50.870;4.606;2023-06-24T09:10:13;1.23;;;0.90;;
68821;SDS011;55834;50.870;4.606;2023-06-24T09:13:03;2.15;;;1.88;;
68821;SDS011;55834;50.870;4.606;2023-06-24T09:15:34;1.90;;;1.48;;
68821;SDS011;55834;50.870;4.606;2023-06-24T09:18:01;1.83;;;1.20;;
68821;SDS011;55834;50.870;4.606;2023-06-24T09:20:28;2.55;;;1.35;;
68821;SDS011;55834;50.870;4.606;2023-06-24T09:22:58;0.90;;;0.90;;
68821;SDS011;55834;50.870;4.606;2023-06-24T09:27:53;1.08;;;0.98;;
68821;SDS011;55834;50.870;4.606;2023-06-24T09:30:24;2.22;;;0.95;;
68821;SDS011;55834;50.870;4.606;2023-06-24T09:32:50;1.77;;;1.10;;
68821;SDS011;55834;50.870;4.606;2023-06-24T09:35:20;1.23;;;1.10;;
68821;SDS011;55834;50.870;4.606;2023-06-24T09:37:50;1.83;;;1.35;;
68821;SDS011;55834;50.870;4.606;2023-06-24T09:40:15;1.23;;;1.13;;
68821;SDS011;55834;50.870;4.606;2023-06-24T09:42:54;1.60;;;1.33;;
68821;SDS011;55834;50.870;4.606;2023-06-24T09:45:25;2.72;;;1.40;;
68821;SDS011;55834;50.870;4.606;2023-06-24T09:47:52;2.10;;;1.50;;
68821;SDS011;55834;50.870;4.606;2023-06-24T09:52:44;2.42;;;1.73;;
68821;SDS011;55834;50.870;4.606;2023-06-24T09:57:37;2.25;;;0.82;;
68821;SDS011;55834;50.870;4.606;2023-06-24T10:00:05;1.52;;;1.35;;
68821;SDS011;55834;50.870;4.606;2023-06-24T10:02:31;1.38;;;1.20;;
68821;SDS011;55834;50.870;4.606;2023-06-24T10:04:59;3.83;;;1.38;;
68821;SDS011;55834;50.870;4.606;2023-06-24T10:07:26;1.60;;;1.50;;
68821;SDS011;55834;50.870;4.606;2023-06-24T10:12:18;2.60;;;1.50;;
68821;SDS011;55834;50.870;4.606;2023-06-24T10:14:44;2.72;;;1.98;;
68821;SDS011;55834;50.870;4.606;2023-06-24T10:17:09;3.97;;;1.20;;
68821;SDS011;55834;50.870;4.606;2023-06-24T10:19:40;1.63;;;1.30;;
68821;SDS011;55834;50.870;4.606;2023-06-24T10:22:09;2.58;;;1.30;;
68821;SDS011;55834;50.870;4.606;2023-06-24T10:24:36;1.80;;;1.20;;
68821;SDS011;55834;50.870;4.606;2023-06-24T10:27:16;2.15;;;1.60;;
68821;SDS011;55834;50.870;4.606;2023-06-24T10:29:46;1.48;;;1.30;;
68821;SDS011;55834;50.870;4.606;2023-06-24T10:32:13;1.00;;;0.85;;
68821;SDS011;55834;50.870;4.606;2023-06-24T10:34:40;1.77;;;1.10;;
68821;SDS011;55834;50.870;4.606;2023-06-24T10:47:44;1.85;;;1.08;;
68821;SDS011;55834;50.870;4.606;2023-06-24T10:50:13;2.53;;;1.30;;
68821;SDS011;55834;50.870;4.606;2023-06-24T10:52:43;1.80;;;1.40;;
68821;SDS011;55834;50.870;4.606;2023-06-24T10:55:10;1.63;;;1.17;;
68821;SDS011;55834;50.870;4.606;2023-06-24T10:57:38;2.75;;;1.25;;
68821;SDS011;55834;50.870;4.606;2023-06-24T11:00:04;1.95;;;1.10;;
68821;SDS011;55834;50.870;4.606;2023-06-24T11:02:30;2.00;;;1.30;;
68821;SDS011;55834;50.870;4.606;2023-06-24T11:04:57;1.73;;;0.98;;
68821;SDS011;55834;50.870;4.606;2023-06-24T11:07:24;1.38;;;1.27;;
68821;SDS011;55834;50.870;4.606;2023-06-24T11:09:54;2.53;;;1.08;;
68821;SDS011;55834;50.870;4.606;2023-06-24T11:12:41;2.60;;;1.33;;
68821;SDS011;55834;50.870;4.606;2023-06-24T11:15:08;1.00;;;0.90;;
68821;SDS011;55834;50.870;4.606;2023-06-24T11:17:35;1.27;;;1.17;;
68821;SDS011;55834;50.870;4.606;2023-06-24T11:22:27;3.60;;;1.00;;
68821;SDS011;55834;50.870;4.606;2023-06-24T11:24:53;2.10;;;1.23;;
68821;SDS011;55834;50.870;4.606;2023-06-24T11:29:51;1.10;;;0.95;;
68821;SDS011;55834;50.870;4.606;2023-06-24T11:32:42;1.17;;;1.08;;
68821;SDS011;55834;50.870;4.606;2023-06-24T11:35:09;1.55;;;1.05;;
68821;SDS011;55834;50.870;4.606;2023-06-24T11:37:36;1.55;;;1.10;;
68821;SDS011;55834;50.870;4.606;2023-06-24T11:40:05;2.08;;;1.30;;
68821;SDS011;55834;50.870;4.606;2023-06-24T11:42:35;1.85;;;1.10;;
68821;SDS011;55834;50.870;4.606;2023-06-24T11:45:08;0.88;;;0.80;;
68821;SDS011;55834;50.870;4.606;2023-06-24T11:47:36;2.03;;;1.00;;
68821;SDS011;55834;50.870;4.606;2023-06-24T11:50:04;2.42;;;1.27;;
68821;SDS011;55834;50.870;4.606;2023-06-24T11:52:46;1.45;;;0.88;;
68821;SDS011;55834;50.870;4.606;2023-06-24T12:00:42;2.00;;;1.30;;
68821;SDS011;55834;50.870;4.606;2023-06-24T12:03:10;1.13;;;1.10;;
68821;SDS011;55834;50.870;4.606;2023-06-24T12:05:37;2.67;;;1.77;;
68821;SDS011;55834;50.870;4.606;2023-06-24T12:08:05;1.52;;;1.40;;
68821;SDS011;55834;50.870;4.606;2023-06-24T12:10:32;2.20;;;1.00;;
68821;SDS011;55834;50.870;4.606;2023-06-24T12:12:59;1.35;;;1.25;;
68821;SDS011;55834;50.870;4.606;2023-06-24T12:15:26;2.60;;;1.40;;
68821;SDS011;55834;50.870;4.606;2023-06-24T12:17:52;2.08;;;1.50;;
68821;SDS011;55834;50.870;4.606;2023-06-24T12:20:18;2.15;;;1.23;;
68821;SDS011;55834;50.870;4.606;2023-06-24T12:22:44;1.35;;;1.25;;
68821;SDS011;55834;50.870;4.606;2023-06-24T12:25:10;2.30;;;1.55;;
68821;SDS011;55834;50.870;4.606;2023-06-24T12:27:35;1.15;;;1.00;;
68821;SDS011;55834;50.870;4.606;2023-06-24T12:30:01;1.60;;;1.50;;
68821;SDS011;55834;50.870;4.606;2023-06-24T12:32:27;2.15;;;1.15;;
68821;SDS011;55834;50.870;4.606;2023-06-24T12:34:52;2.42;;;1.60;;
68821;SDS011;55834;50.870;4.606;2023-06-24T12:37:18;1.92;;;1.50;;
68821;SDS011;55834;50.870;4.606;2023-06-24T12:39:44;1.33;;;1.23;;
68821;SDS011;55834;50.870;4.606;2023-06-24T12:42:10;2.72;;;1.17;;
68821;SDS011;55834;50.870;4.606;2023-06-24T12:44:35;2.70;;;1.48;;
68821;SDS011;55834;50.870;4.606;2023-06-24T12:47:01;1.60;;;1.20;;
68821;SDS011;55834;50.870;4.606;2023-06-24T12:49:27;1.77;;;1.65;;
68821;SDS011;55834;50.870;4.606;2023-06-24T12:51:53;1.98;;;1.75;;
68821;SDS011;55834;50.870;4.606;2023-06-24T12:54:19;1.33;;;1.15;;
68821;SDS011;55834;50.870;4.606;2023-06-24T12:56:45;2.65;;;1.25;;
68821;SDS011;55834;50.870;4.606;2023-06-24T12:59:10;2.10;;;1.30;;
68821;SDS011;55834;50.870;4.606;2023-06-24T13:01:35;1.50;;;1.40;;
68821;SDS011;55834;50.870;4.606;2023-06-24T13:04:01;2.10;;;1.08;;
68821;SDS011;55834;50.870;4.606;2023-06-24T13:06:26;2.10;;;1.60;;
68821;SDS011;55834;50.870;4.606;2023-06-24T13:08:52;2.10;;;1.55;;
68821;SDS011;55834;50.870;4.606;2023-06-24T13:11:17;1.87;;;1.33;;
68821;SDS011;55834;50.870;4.606;2023-06-24T13:13:43;2.75;;;1.30;;
68821;SDS011;55834;50.870;4.606;2023-06-24T13:16:08;1.83;;;1.45;;
68821;SDS011;55834;50.870;4.606;2023-06-24T13:18:33;2.23;;;1.30;;
68821;SDS011;55834;50.870;4.606;2023-06-24T13:20:59;1.83;;;1.60;;
68821;SDS011;55834;50.870;4.606;2023-06-24T13:23:24;2.85;;;1.45;;
68821;SDS011;55834;50.870;4.606;2023-06-24T13:25:49;1.92;;;1.52;;
68821;SDS011;55834;50.870;4.606;2023-06-24T13:28:15;1.83;;;1.30;;
68821;SDS011;55834;50.870;4.606;2023-06-24T13:30:40;2.10;;;1.30;;
68821;SDS011;55834;50.870;4.606;2023-06-24T13:33:05;2.20;;;1.30;;
68821;SDS011;55834;50.870;4.606;2023-06-24T13:35:31;2.13;;;1.63;;
68821;SDS011;55834;50.870;4.606;2023-06-24T13:37:56;1.33;;;1.23;;
68821;SDS011;55834;50.870;4.606;2023-06-24T13:40:23;1.52;;;0.90;;
68821;SDS011;55834;50.870;4.606;2023-06-24T13:45:15;2.40;;;1.10;;
68821;SDS011;55834;50.870;4.606;2023-06-24T13:47:40;2.33;;;1.40;;
68821;SDS011;55834;50.870;4.606;2023-06-24T13:50:06;2.93;;;1.33;;
68821;SDS011;55834;50.870;4.606;2023-06-24T13:52:32;3.15;;;1.52;;
68821;SDS011;55834;50.870;4.606;2023-06-24T13:54:57;2.13;;;1.50;;
68821;SDS011;55834;50.870;4.606;2023-06-24T13:57:22;1.33;;;1.23;;
68821;SDS011;55834;50.870;4.606;2023-06-24T13:59:48;1.33;;;1.23;;
68821;SDS011;55834;50.870;4.606;2023-06-24T14:02:13;2.40;;;1.50;;
68821;SDS011;55834;50.870;4.606;2023-06-24T14:04:39;2.33;;;1.40;;
68821;SDS011;55834;50.870;4.606;2023-06-24T14:07:05;1.88;;;1.10;;
68821;SDS011;55834;50.870;4.606;2023-06-24T14:09:31;1.55;;;1.45;;
68821;SDS011;55834;50.870;4.606;2023-06-24T14:11:57;1.58;;;1.45;;
68821;SDS011;55834;50.870;4.606;2023-06-24T14:14:22;3.05;;;1.20;;
68821;SDS011;55834;50.870;4.606;2023-06-24T14:16:48;1.85;;;1.30;;
68821;SDS011;55834;50.870;4.606;2023-06-24T14:19:13;2.13;;;1.70;;
68821;SDS011;55834;50.870;4.606;2023-06-24T14:21:38;2.58;;;1.60;;
68821;SDS011;55834;50.870;4.606;2023-06-24T14:24:04;2.75;;;1.30;;
68821;SDS011;55834;50.870;4.606;2023-06-24T14:26:31;3.58;;;1.52;;
68821;SDS011;55834;50.870;4.606;2023-06-24T14:28:59;2.08;;;1.27;;
68821;SDS011;55834;50.870;4.606;2023-06-24T14:31:26;1.30;;;1.20;;
68821;SDS011;55834;50.870;4.606;2023-06-24T14:33:51;2.83;;;1.73;;
68821;SDS011;55834;50.870;4.606;2023-06-24T14:36:17;1.40;;;1.27;;
68821;SDS011;55834;50.870;4.606;2023-06-24T14:38:42;1.38;;;1.27;;
68821;SDS011;55834;50.870;4.606;2023-06-24T14:41:09;1.73;;;1.38;;
68821;SDS011;55834;50.870;4.606;2023-06-24T14:43:34;2.80;;;1.30;;
68821;SDS011;55834;50.870;4.606;2023-06-24T14:46:00;1.43;;;1.10;;
68821;SDS011;55834;50.870;4.606;2023-06-24T14:48:25;1.55;;;1.30;;
68821;SDS011;55834;50.870;4.606;2023-06-24T14:50:50;2.00;;;1.80;;
68821;SDS011;55834;50.870;4.606;2023-06-24T14:53:16;1.52;;;1.33;;
68821;SDS011;55834;50.870;4.606;2023-06-24T14:55:41;2.00;;;1.20;;
68821;SDS011;55834;50.870;4.606;2023-06-24T14:58:07;2.03;;;1.80;;
68821;SDS011;55834;50.870;4.606;2023-06-24T15:00:32;2.78;;;1.25;;
68821;SDS011;55834;50.870;4.606;2023-06-24T15:02:58;2.50;;;1.60;;
68821;SDS011;55834;50.870;4.606;2023-06-24T15:05:23;1.60;;;1.50;;
68821;SDS011;55834;50.870;4.606;2023-06-24T15:07:51;1.70;;;1.13;;
68821;SDS011;55834;50.870;4.606;2023-06-24T15:10:35;1.30;;;1.02;;
68821;SDS011;55834;50.870;4.606;2023-06-24T15:13:00;7.88;;;1.60;;
68821;SDS011;55834;50.870;4.606;2023-06-24T15:15:25;1.77;;;1.25;;
68821;SDS011;55834;50.870;4.606;2023-06-24T15:17:51;1.60;;;1.50;;
68821;SDS011;55834;50.870;4.606;2023-06-24T15:20:19;9.45;;;1.75;;
68821;SDS011;55834;50.870;4.606;2023-06-24T15:22:44;2.13;;;1.52;;
68821;SDS011;55834;50.870;4.606;2023-06-24T15:25:10;2.83;;;1.27;;
68821;SDS011;55834;50.870;4.606;2023-06-24T15:27:36;2.50;;;1.88;;
68821;SDS011;55834;50.870;4.606;2023-06-24T15:30:01;1.73;;;1.63;;
68821;SDS011;55834;50.870;4.606;2023-06-24T15:32:27;3.80;;;1.83;;
68821;SDS011;55834;50.870;4.606;2023-06-24T15:34:53;2.20;;;1.40;;
68821;SDS011;55834;50.870;4.606;2023-06-24T15:37:18;3.13;;;1.57;;